createdAt,value
2022-11-02T00:08:00.448Z,46.10
2022-11-02T00:18:08.101Z,46.70
2022-11-02T00:28:11.383Z,48.80
2022-11-02T00:38:14.646Z,51.90
2022-11-02T00:48:17.839Z,53.00
2022-11-02T00:58:21.696Z,83.30
2022-11-02T01:08:26.248Z,54.80
2022-11-02T01:18:29.370Z,54.90
2022-11-02T01:28:33.204Z,58.60
2022-11-02T01:38:36.432Z,57.80
2022-11-02T01:48:51.234Z,55.30
2022-11-02T01:59:00.588Z,53.80
2022-11-02T02:09:06.405Z,54.10
2022-11-02T02:19:43.266Z,55.90
2022-11-02T02:30:07.753Z,49.00
2022-11-02T02:40:19.646Z,47.90
2022-11-02T02:50:27.910Z,41.20
2022-11-02T03:00:34.957Z,36.50
2022-11-02T03:10:59.395Z,36.40
2022-11-02T03:21:26.962Z,27.00
2022-11-02T03:31:42.913Z,24.30
2022-11-02T03:41:48.602Z,21.20
2022-11-02T03:51:54.078Z,22.20
2022-11-02T04:02:01.157Z,29.50
2022-11-02T04:12:24.215Z,21.20
2022-11-02T04:22:46.677Z,20.10
2022-11-02T04:33:10.435Z,21.30
2022-11-02T04:43:19.848Z,21.00
2022-11-02T04:53:24.338Z,22.20
2022-11-02T05:03:28.458Z,24.80
2022-11-02T05:13:32.217Z,24.70
2022-11-02T05:23:35.817Z,25.60
2022-11-02T05:33:40.433Z,27.20
2022-11-02T05:43:50.058Z,30.20
2022-11-02T05:53:53.575Z,26.40
2022-11-02T06:03:57.144Z,25.50
2022-11-02T06:14:00.901Z,26.80
2022-11-02T06:24:04.421Z,28.40
2022-11-02T06:34:07.855Z,26.00
2022-11-02T06:44:11.164Z,28.20
2022-11-02T06:54:14.935Z,28.80
2022-11-02T07:04:18.113Z,30.70
2022-11-02T07:14:21.352Z,31.10
2022-11-02T07:24:24.706Z,27.00
2022-11-02T07:34:27.908Z,30.50
2022-11-02T07:44:31.244Z,30.20
2022-11-02T07:54:34.583Z,29.10
2022-11-02T08:04:40.821Z,30.80
2022-11-02T08:14:47.488Z,40.90
2022-11-02T08:24:50.676Z,24.10
2022-11-02T08:34:53.940Z,23.40
2022-11-02T08:44:57.303Z,24.20
2022-11-02T08:55:00.547Z,26.90
2022-11-02T09:05:04.097Z,21.60
2022-11-02T09:15:08.224Z,21.10
2022-11-02T09:25:12.002Z,21.50
2022-11-02T09:35:15.232Z,18.70
2022-11-02T09:45:20.864Z,19.00
2022-11-02T09:55:30.716Z,19.00
2022-11-02T10:05:56.999Z,17.30
2022-11-02T10:16:19.463Z,17.10
2022-11-02T10:26:27.488Z,20.40
2022-11-02T10:36:49.238Z,19.20
2022-11-02T10:47:03.979Z,18.30
2022-11-02T10:57:24.286Z,17.10
2022-11-02T11:07:28.266Z,14.70
2022-11-02T11:28:29.250Z,15.50
2022-11-02T11:38:32.459Z,16.50
2022-11-02T11:48:55.457Z,17.40
2022-11-02T11:58:59.522Z,17.40
2022-11-02T12:09:18.082Z,18.50
2022-11-02T12:19:34.212Z,21.10
2022-11-02T12:29:56.853Z,20.00
2022-11-02T12:50:54.065Z,19.90
2022-11-02T13:01:12.396Z,20.20
2022-11-02T13:11:40.031Z,22.70
2022-11-02T13:21:49.866Z,25.00
2022-11-02T13:32:24.996Z,24.00
2022-11-02T13:42:52.834Z,29.50
2022-11-02T13:53:00.207Z,32.30
2022-11-02T14:03:12.525Z,27.90
2022-11-02T14:13:17.835Z,104.00
2022-11-02T14:23:33.940Z,24.80
2022-11-02T14:33:59.968Z,24.50
2022-11-02T14:44:27.907Z,23.70
2022-11-02T14:54:36.540Z,26.30
2022-11-02T15:04:52.203Z,29.30
2022-11-02T15:14:59.177Z,28.00
2022-11-02T15:25:26.868Z,30.80
2022-11-02T15:35:34.203Z,38.00
2022-11-02T15:46:10.103Z,31.90
2022-11-02T15:56:39.680Z,31.10
2022-11-02T16:06:44.570Z,27.20
2022-11-02T16:16:51.075Z,31.10
2022-11-02T16:26:54.587Z,38.90
2022-11-02T16:36:59.393Z,36.70
2022-11-02T16:47:08.465Z,34.60
2022-11-02T16:57:12.351Z,36.60
2022-11-02T17:07:30.132Z,35.90
2022-11-02T17:17:39.183Z,31.00
2022-11-02T17:27:42.990Z,36.50
2022-11-02T17:37:46.381Z,42.60
2022-11-02T17:47:50.025Z,39.50
2022-11-02T17:57:54.042Z,37.90
2022-11-02T18:07:59.001Z,40.40
2022-11-02T18:18:02.542Z,34.10
2022-11-02T18:28:06.650Z,30.40
2022-11-02T18:38:10.532Z,26.10
2022-11-02T18:48:13.913Z,23.10
2022-11-02T18:58:17.413Z,28.30
2022-11-02T19:08:39.119Z,21.00
2022-11-02T19:18:42.541Z,18.90
2022-11-02T19:28:45.888Z,19.50
2022-11-02T19:38:49.201Z,17.20
2022-11-02T19:48:53.253Z,18.70
2022-11-02T19:58:57.317Z,19.30
2022-11-02T20:09:04.730Z,18.20
2022-11-02T20:19:09.326Z,19.40
2022-11-02T20:29:15.488Z,17.20
2022-11-02T20:39:21.555Z,18.40
2022-11-02T20:49:54.499Z,18.10
2022-11-02T20:59:48.218Z,15.60
2022-11-02T21:09:51.708Z,15.10
2022-11-02T21:19:58.239Z,15.60
2022-11-02T21:30:11.983Z,18.00
2022-11-02T21:40:15.435Z,15.80
2022-11-02T21:50:18.792Z,16.00
2022-11-02T22:00:22.059Z,16.50
2022-11-02T22:10:25.317Z,13.00
2022-11-02T22:20:28.606Z,12.60
2022-11-02T22:30:34.282Z,13.30
2022-11-02T22:40:37.572Z,12.90
2022-11-02T22:50:40.854Z,13.90
2022-11-02T23:00:44.751Z,13.20
2022-11-02T23:11:16.403Z,14.10
2022-11-02T23:21:19.710Z,12.80
2022-11-02T23:31:43.365Z,12.70
2022-11-02T23:41:46.614Z,15.60
2022-11-02T23:52:08.638Z,14.40
